createdAt,value
2022-10-22T00:00:37.486Z,63.27
2022-10-22T00:11:18.318Z,63.50
2022-10-22T00:21:45.647Z,63.64
2022-10-22T00:32:13.046Z,63.78
2022-10-22T00:42:40.484Z,63.48
2022-10-22T00:53:12.318Z,62.80
2022-10-22T01:03:39.787Z,62.96
2022-10-22T01:14:16.190Z,63.33
2022-10-22T01:24:57.626Z,63.63
2022-10-22T01:35:28.545Z,63.52
2022-10-22T01:46:00.440Z,63.56
2022-10-22T01:56:45.894Z,63.79
2022-10-22T02:07:16.899Z,63.72
2022-10-22T02:17:46.900Z,63.79
2022-10-22T02:28:20.802Z,64.27
2022-10-22T02:38:50.382Z,63.73
2022-10-22T02:49:17.682Z,63.80
2022-10-22T02:59:44.982Z,64.33
2022-10-22T03:10:13.004Z,64.51
2022-10-22T03:20:40.415Z,64.62
2022-10-22T03:31:07.833Z,64.71
2022-10-22T03:41:35.888Z,64.46
2022-10-22T03:52:08.945Z,64.50
2022-10-22T04:02:36.200Z,64.63
2022-10-22T04:13:03.631Z,64.89
2022-10-22T04:23:31.049Z,65.03
2022-10-22T04:34:00.880Z,64.74
2022-10-22T04:44:28.255Z,64.44
2022-10-22T04:54:55.550Z,64.49
2022-10-22T05:05:22.874Z,64.32
2022-10-22T05:15:50.117Z,63.85
2022-10-22T05:26:19.587Z,63.44
2022-10-22T05:36:47.419Z,63.65
2022-10-22T05:47:14.692Z,63.95
2022-10-22T05:57:42.192Z,63.78
2022-10-22T06:08:14.432Z,63.29
2022-10-22T06:18:44.245Z,63.14
2022-10-22T06:29:12.104Z,63.38
2022-10-22T06:39:39.329Z,63.68
2022-10-22T06:50:07.602Z,64.33
2022-10-22T07:00:34.998Z,64.60
2022-10-22T07:11:09.390Z,64.41
2022-10-22T07:21:36.709Z,64.51
2022-10-22T07:32:04.187Z,64.60
2022-10-22T07:42:31.467Z,64.77
2022-10-22T07:52:59.039Z,64.88
2022-10-22T08:03:26.363Z,64.79
2022-10-22T08:13:53.731Z,64.65
2022-10-22T08:24:21.378Z,64.55
2022-10-22T08:34:48.699Z,64.68
2022-10-22T08:45:24.111Z,64.61
2022-10-22T08:55:54.077Z,64.41
2022-10-22T09:06:25.063Z,64.37
2022-10-22T09:17:13.155Z,64.45
2022-10-22T09:27:40.716Z,64.54
2022-10-22T09:38:11.220Z,64.54
2022-10-22T09:48:41.019Z,64.54
2022-10-22T09:59:15.112Z,64.64
2022-10-22T10:09:42.521Z,64.64
2022-10-22T10:20:25.241Z,64.70
2022-10-22T10:31:02.526Z,64.66
2022-10-22T10:41:38.801Z,64.91
2022-10-22T10:52:18.890Z,65.60
2022-10-22T11:03:19.347Z,66.33
2022-10-22T11:13:51.961Z,66.96
2022-10-22T11:24:24.575Z,67.43
2022-10-22T11:34:55.958Z,67.86
2022-10-22T11:45:36.600Z,68.14
2022-10-22T11:56:25.561Z,68.54
2022-10-22T12:07:02.379Z,68.54
2022-10-22T12:17:32.273Z,68.35
2022-10-22T12:28:01.108Z,68.47
2022-10-22T12:38:28.896Z,68.36
2022-10-22T12:48:56.950Z,68.43
2022-10-22T12:59:27.895Z,68.49
2022-10-22T13:10:02.337Z,69.04
2022-10-22T13:20:29.913Z,69.52
2022-10-22T13:30:59.172Z,70.21
2022-10-22T13:41:28.191Z,70.76
2022-10-22T13:51:55.759Z,71.42
2022-10-22T14:02:24.866Z,72.03
2022-10-22T14:12:54.099Z,72.66
2022-10-22T14:23:23.540Z,73.19
2022-10-22T14:33:51.363Z,73.47
2022-10-22T14:44:18.687Z,73.73
2022-10-22T14:54:46.147Z,73.91
2022-10-22T15:05:13.759Z,74.24
2022-10-22T15:15:42.459Z,74.37
2022-10-22T15:26:11.920Z,74.54
2022-10-22T15:36:39.369Z,74.76
2022-10-22T15:47:08.839Z,74.83
2022-10-22T15:57:36.581Z,74.67
2022-10-22T16:08:04.005Z,74.72
2022-10-22T16:18:31.314Z,74.89
2022-10-22T16:28:59.373Z,75.01
2022-10-22T16:39:26.904Z,75.22
2022-10-22T16:49:54.243Z,75.47
2022-10-22T17:00:22.779Z,75.37
2022-10-22T17:10:50.170Z,75.58
2022-10-22T17:21:18.952Z,75.71
2022-10-22T17:31:46.440Z,75.57
2022-10-22T17:42:13.799Z,75.64
2022-10-22T17:52:42.728Z,75.72
2022-10-22T18:03:12.241Z,75.76
2022-10-22T18:13:39.615Z,75.91
2022-10-22T18:24:07.756Z,75.89
2022-10-22T18:34:36.377Z,76.12
2022-10-22T18:45:04.248Z,76.09
2022-10-22T18:55:31.522Z,76.24
2022-10-22T19:06:00.032Z,76.54
2022-10-22T19:16:28.576Z,76.64
2022-10-22T19:26:56.276Z,76.54
2022-10-22T19:37:23.646Z,76.27
2022-10-22T19:47:51.097Z,76.26
2022-10-22T19:58:18.452Z,76.30
2022-10-22T20:08:46.229Z,76.15
2022-10-22T20:19:16.271Z,76.19
2022-10-22T20:29:43.939Z,76.35
2022-10-22T20:40:12.534Z,76.48
2022-10-22T20:50:40.051Z,76.74
2022-10-22T21:01:12.206Z,76.97
2022-10-22T21:11:41.255Z,77.06
2022-10-22T21:22:08.606Z,77.13
2022-10-22T21:32:36.321Z,77.20
2022-10-22T21:43:03.859Z,76.92
2022-10-22T21:53:31.146Z,76.96
2022-10-22T22:03:58.919Z,77.02
2022-10-22T22:14:26.210Z,76.91
2022-10-22T22:24:53.473Z,76.92
2022-10-22T22:35:20.914Z,76.93
2022-10-22T22:45:48.235Z,76.91
2022-10-22T22:56:18.115Z,77.05
2022-10-22T23:06:46.325Z,76.94
2022-10-22T23:17:12.024Z,76.73
2022-10-22T23:27:39.414Z,76.87
2022-10-22T23:38:07.853Z,76.76
2022-10-22T23:48:35.389Z,76.89
2022-10-22T23:59:03.013Z,76.88
